createdAt,value
2022-10-17T00:02:06.738Z,7.00
2022-10-17T00:07:05.814Z,7.10
2022-10-17T00:09:32.819Z,7.00
2022-10-17T00:11:59.810Z,7.00
2022-10-17T00:14:26.811Z,7.00
2022-10-17T00:16:53.759Z,7.10
2022-10-17T00:19:20.705Z,7.00
2022-10-17T00:21:49.677Z,7.00
2022-10-17T00:24:16.907Z,7.00
2022-10-17T00:26:43.951Z,7.00
2022-10-17T00:29:10.939Z,7.00
2022-10-17T00:31:37.940Z,7.00
2022-10-17T00:34:04.951Z,6.90
2022-10-17T00:36:31.968Z,6.90
2022-10-17T00:38:59.611Z,6.80
2022-10-17T00:41:32.228Z,6.90
2022-10-17T00:44:03.905Z,7.00
2022-10-17T00:46:36.331Z,7.00
2022-10-17T00:49:08.752Z,7.10
2022-10-17T00:51:43.480Z,7.20
2022-10-17T00:54:13.311Z,7.30
2022-10-17T00:56:40.622Z,7.40
2022-10-17T00:59:11.001Z,7.40
2022-10-17T01:01:38.896Z,7.50
2022-10-17T01:04:06.030Z,7.50
2022-10-17T01:06:33.122Z,7.50
2022-10-17T01:09:00.126Z,7.50
2022-10-17T01:11:37.856Z,7.50
2022-10-17T01:14:29.416Z,7.60
2022-10-17T01:17:22.275Z,7.60
2022-10-17T01:20:21.663Z,7.60
2022-10-17T01:23:26.147Z,7.50
2022-10-17T01:25:56.440Z,7.50
2022-10-17T01:28:26.338Z,7.50
2022-10-17T01:31:08.519Z,7.50
2022-10-17T01:33:55.277Z,7.40
2022-10-17T01:36:25.241Z,7.50
2022-10-17T01:39:16.030Z,7.50
2022-10-17T01:41:46.542Z,7.50
2022-10-17T01:44:21.404Z,7.50
2022-10-17T01:49:26.970Z,7.60
2022-10-17T01:52:18.755Z,7.60
2022-10-17T01:54:54.329Z,7.60
2022-10-17T01:57:35.929Z,7.50
2022-10-17T02:00:06.365Z,7.50
2022-10-17T02:02:35.003Z,7.50
2022-10-17T02:05:04.158Z,7.40
2022-10-17T02:07:31.222Z,7.50
2022-10-17T02:09:58.259Z,7.40
2022-10-17T02:12:51.603Z,7.40
2022-10-17T02:15:39.435Z,7.30
2022-10-17T02:18:27.377Z,7.30
2022-10-17T02:20:59.537Z,7.30
2022-10-17T02:23:38.521Z,7.30
2022-10-17T02:26:26.797Z,7.40
2022-10-17T02:29:24.053Z,7.40
2022-10-17T02:32:01.539Z,7.50
2022-10-17T02:34:44.537Z,7.60
2022-10-17T02:37:15.236Z,7.50
2022-10-17T02:39:44.335Z,7.50
2022-10-17T02:42:13.301Z,7.50
2022-10-17T02:44:43.815Z,7.40
2022-10-17T02:47:29.479Z,7.30
2022-10-17T02:49:58.565Z,7.30
2022-10-17T02:52:46.104Z,7.30
2022-10-17T02:55:20.547Z,7.20
2022-10-17T02:57:56.110Z,7.20
2022-10-17T03:00:25.121Z,7.20
2022-10-17T03:02:53.691Z,7.10
2022-10-17T03:05:23.489Z,7.10
2022-10-17T03:07:51.307Z,7.00
2022-10-17T03:10:18.737Z,6.90
2022-10-17T03:12:45.703Z,6.90
2022-10-17T03:15:13.436Z,7.00
2022-10-17T03:17:40.488Z,7.10
2022-10-17T03:20:08.015Z,7.10
2022-10-17T03:22:35.080Z,7.00
2022-10-17T03:25:02.079Z,6.90
2022-10-17T03:27:29.297Z,7.00
2022-10-17T03:29:56.390Z,7.10
2022-10-17T03:32:23.356Z,7.00
2022-10-17T03:34:50.331Z,7.00
2022-10-17T03:37:17.367Z,7.00
2022-10-17T03:39:44.332Z,7.00
2022-10-17T03:42:11.341Z,7.10
2022-10-17T03:44:38.308Z,7.10
2022-10-17T03:47:07.292Z,7.10
2022-10-17T03:49:36.273Z,7.10
2022-10-17T03:52:04.313Z,7.00
2022-10-17T03:54:31.234Z,7.10
2022-10-17T03:56:58.209Z,7.00
2022-10-17T03:59:25.167Z,7.00
2022-10-17T04:01:52.317Z,7.00
2022-10-17T04:04:19.262Z,7.10
2022-10-17T04:06:46.262Z,7.00
2022-10-17T04:09:13.356Z,7.00
2022-10-17T04:11:40.433Z,7.00
2022-10-17T04:14:07.577Z,7.10
2022-10-17T04:16:34.539Z,7.00
2022-10-17T04:19:01.976Z,7.00
2022-10-17T04:21:29.852Z,7.00
2022-10-17T04:23:59.439Z,7.00
2022-10-17T04:26:27.522Z,6.90
2022-10-17T04:28:54.544Z,6.80
2022-10-17T04:31:21.918Z,6.80
2022-10-17T04:33:50.499Z,6.90
2022-10-17T04:36:19.597Z,6.80
2022-10-17T04:38:47.174Z,6.80
2022-10-17T04:41:17.626Z,6.80
2022-10-17T04:43:48.416Z,6.80
2022-10-17T04:46:18.016Z,6.80
2022-10-17T04:48:45.048Z,6.80
2022-10-17T04:51:14.698Z,6.80
2022-10-17T04:53:43.119Z,6.80
2022-10-17T04:56:11.145Z,6.70
2022-10-17T04:58:39.545Z,6.60
2022-10-17T05:01:13.108Z,6.70
2022-10-17T05:03:40.587Z,6.60
2022-10-17T05:06:13.510Z,6.60
2022-10-17T05:08:41.048Z,6.50
2022-10-17T05:11:34.042Z,6.40
2022-10-17T05:14:02.364Z,6.30
2022-10-17T05:16:30.035Z,6.20
2022-10-17T05:18:58.546Z,6.20
2022-10-17T05:21:27.536Z,6.10
2022-10-17T05:23:54.786Z,6.10
2022-10-17T05:26:22.570Z,6.20
2022-10-17T05:28:49.710Z,6.20
2022-10-17T05:31:16.781Z,6.20
2022-10-17T05:33:44.124Z,6.00
2022-10-17T05:36:11.413Z,5.90
2022-10-17T05:38:38.501Z,5.90
2022-10-17T05:41:06.395Z,5.90
2022-10-17T05:43:34.829Z,5.90
2022-10-17T05:46:06.193Z,5.80
2022-10-17T05:48:33.628Z,5.80
2022-10-17T05:51:02.896Z,5.80
2022-10-17T05:53:35.099Z,5.70
2022-10-17T05:56:04.410Z,5.70
2022-10-17T05:58:49.128Z,5.70
2022-10-17T06:01:17.171Z,5.80
2022-10-17T06:03:44.298Z,5.70
2022-10-17T06:06:14.068Z,5.70
2022-10-17T06:08:41.101Z,5.70
2022-10-17T06:11:10.143Z,5.80
2022-10-17T06:13:38.668Z,5.90
2022-10-17T06:16:06.463Z,6.00
2022-10-17T06:18:33.658Z,6.10
2022-10-17T06:21:10.061Z,6.10
2022-10-17T06:23:37.019Z,6.20
2022-10-17T06:26:06.195Z,6.20
2022-10-17T06:28:33.903Z,6.40
2022-10-17T06:31:07.990Z,6.90
2022-10-17T06:33:35.279Z,7.30
2022-10-17T06:36:03.061Z,8.00
2022-10-17T06:38:30.259Z,9.00
2022-10-17T06:41:08.867Z,10.00
2022-10-17T06:43:39.704Z,11.00
2022-10-17T06:46:07.062Z,11.70
2022-10-17T06:48:34.308Z,12.20
2022-10-17T06:51:02.968Z,12.70
2022-10-17T06:53:31.444Z,12.70
2022-10-17T06:56:03.014Z,13.00
2022-10-17T06:58:41.654Z,13.40
2022-10-17T07:01:13.674Z,13.30
2022-10-17T07:03:41.310Z,13.60
2022-10-17T07:06:08.650Z,14.30
2022-10-17T07:08:35.628Z,14.50
2022-10-17T07:11:14.770Z,14.70
2022-10-17T07:13:41.976Z,14.30
2022-10-17T07:16:09.993Z,14.60
2022-10-17T07:18:37.541Z,15.20
2022-10-17T07:21:05.301Z,15.70
2022-10-17T07:23:34.357Z,15.60
2022-10-17T07:26:02.649Z,15.80
2022-10-17T07:28:29.739Z,16.30
2022-10-17T07:30:56.695Z,16.60
2022-10-17T07:33:23.639Z,16.60
2022-10-17T07:35:52.653Z,16.30
2022-10-17T07:38:19.635Z,16.60
2022-10-17T07:40:46.680Z,17.10
2022-10-17T07:43:13.630Z,16.80
2022-10-17T07:45:41.543Z,17.20
2022-10-17T07:48:08.468Z,17.40
2022-10-17T07:50:35.459Z,18.10
2022-10-17T07:53:02.378Z,18.30
2022-10-17T07:55:29.287Z,18.50
2022-10-17T07:57:58.203Z,18.10
2022-10-17T08:00:25.152Z,18.50
2022-10-17T08:02:52.143Z,18.70
2022-10-17T08:05:19.108Z,19.20
2022-10-17T08:07:46.139Z,19.20
2022-10-17T08:10:15.000Z,19.30
2022-10-17T08:12:42.663Z,20.60
2022-10-17T08:15:10.676Z,20.70
2022-10-17T08:17:38.994Z,20.20
2022-10-17T08:20:06.718Z,19.80
2022-10-17T08:22:33.949Z,20.30
2022-10-17T08:25:00.873Z,20.90
2022-10-17T08:27:28.971Z,21.60
2022-10-17T08:29:55.968Z,22.10
2022-10-17T08:32:25.895Z,22.10
2022-10-17T08:34:56.566Z,21.70
2022-10-17T08:37:23.865Z,21.30
2022-10-17T08:39:50.851Z,21.70
2022-10-17T08:42:36.249Z,21.60
2022-10-17T08:45:26.351Z,21.90
2022-10-17T08:48:01.554Z,22.10
2022-10-17T08:50:53.316Z,22.30
2022-10-17T08:53:30.019Z,22.00
2022-10-17T08:55:58.141Z,21.70
2022-10-17T08:58:29.668Z,21.90
2022-10-17T09:01:36.906Z,23.00
2022-10-17T09:04:16.040Z,22.00
2022-10-17T09:07:05.803Z,22.10
2022-10-17T09:10:07.674Z,22.40
2022-10-17T09:13:05.326Z,22.70
2022-10-17T09:15:41.953Z,23.20
2022-10-17T09:18:22.049Z,23.40
2022-10-17T09:21:12.788Z,23.60
2022-10-17T09:24:09.067Z,23.10
2022-10-17T09:26:40.968Z,23.10
2022-10-17T09:29:27.015Z,23.10
2022-10-17T09:32:11.307Z,22.40
2022-10-17T09:34:38.399Z,22.50
2022-10-17T09:37:13.527Z,22.40
2022-10-17T09:39:41.830Z,22.70
2022-10-17T09:42:18.750Z,22.40
2022-10-17T09:45:14.414Z,23.20
2022-10-17T09:47:46.264Z,23.50
2022-10-17T09:50:35.809Z,23.70
2022-10-17T09:53:12.383Z,23.20
2022-10-17T09:55:48.395Z,23.60
2022-10-17T09:58:15.774Z,23.50
2022-10-17T10:00:45.728Z,23.80
2022-10-17T10:03:24.598Z,24.20
2022-10-17T10:06:03.518Z,24.70
2022-10-17T10:08:48.991Z,23.10
2022-10-17T10:11:17.752Z,22.40
2022-10-17T10:13:47.399Z,21.70
2022-10-17T10:16:22.259Z,21.20
2022-10-17T10:18:51.222Z,20.80
2022-10-17T10:21:23.729Z,20.00
2022-10-17T10:23:59.780Z,20.30
2022-10-17T10:26:32.040Z,20.80
2022-10-17T10:29:20.140Z,20.90
2022-10-17T10:31:48.139Z,20.30
2022-10-17T10:34:25.284Z,20.10
2022-10-17T10:37:18.790Z,20.60
2022-10-17T10:40:01.166Z,20.10
2022-10-17T10:42:36.972Z,20.60
2022-10-17T10:48:23.333Z,20.30
2022-10-17T10:50:53.270Z,20.70
2022-10-17T10:53:42.017Z,20.80
2022-10-17T10:56:18.455Z,20.60
2022-10-17T10:59:04.892Z,20.00
2022-10-17T11:01:56.196Z,19.00
2022-10-17T11:04:40.107Z,18.30
2022-10-17T11:07:30.111Z,17.80
2022-10-17T11:10:23.550Z,17.70
2022-10-17T11:12:53.220Z,17.70
2022-10-17T11:15:28.043Z,17.40
2022-10-17T11:18:22.733Z,17.00
2022-10-17T11:21:28.948Z,16.60
2022-10-17T11:24:24.348Z,16.20
2022-10-17T11:27:11.778Z,15.80
2022-10-17T11:29:41.465Z,15.80
2022-10-17T11:32:23.058Z,15.60
2022-10-17T11:35:03.269Z,15.80
2022-10-17T11:37:40.897Z,15.40
2022-10-17T11:40:21.926Z,15.30
2022-10-17T11:43:00.093Z,15.30
2022-10-17T11:45:33.291Z,15.10
2022-10-17T11:48:07.916Z,15.10
2022-10-17T11:53:37.177Z,14.40
2022-10-17T11:56:04.527Z,14.10
2022-10-17T11:59:02.609Z,13.90
2022-10-17T12:01:44.530Z,13.80
2022-10-17T12:04:36.466Z,13.50
2022-10-17T12:07:17.607Z,13.20
2022-10-17T12:10:13.790Z,13.30
2022-10-17T12:12:40.728Z,13.20
2022-10-17T12:15:13.541Z,13.20
2022-10-17T12:17:46.085Z,13.00
2022-10-17T12:20:24.942Z,12.90
2022-10-17T12:22:58.472Z,12.70
2022-10-17T12:25:32.123Z,12.70
2022-10-17T12:28:14.396Z,12.60
2022-10-17T12:30:57.161Z,12.60
2022-10-17T12:33:37.205Z,12.50
2022-10-17T12:36:21.182Z,12.50
2022-10-17T12:38:50.411Z,12.50
2022-10-17T12:41:38.360Z,12.30
2022-10-17T12:44:14.690Z,12.00
2022-10-17T12:47:08.025Z,11.90
2022-10-17T12:49:49.670Z,11.80
2022-10-17T12:52:35.160Z,11.70
2022-10-17T12:55:14.226Z,11.60
2022-10-17T12:57:53.946Z,11.60
2022-10-17T13:00:23.353Z,11.50
2022-10-17T13:02:54.311Z,11.50
2022-10-17T13:05:33.703Z,11.50
2022-10-17T13:08:03.678Z,11.50
2022-10-17T13:10:39.690Z,11.40
2022-10-17T13:13:17.412Z,11.30
2022-10-17T13:15:52.573Z,11.30
2022-10-17T13:18:23.939Z,11.30
2022-10-17T13:21:26.195Z,11.30
2022-10-17T13:23:54.494Z,11.20
2022-10-17T13:26:27.375Z,11.20
2022-10-17T13:29:06.065Z,11.20
2022-10-17T13:31:39.056Z,11.20
2022-10-17T13:34:24.060Z,11.20
2022-10-17T13:36:55.031Z,11.30
2022-10-17T13:39:44.967Z,11.30
2022-10-17T13:42:40.450Z,11.30
2022-10-17T13:45:22.464Z,11.30
2022-10-17T13:47:49.739Z,11.20
2022-10-17T13:50:44.528Z,11.10
2022-10-17T13:53:33.883Z,11.00
2022-10-17T13:56:27.405Z,11.00
2022-10-17T13:58:57.417Z,11.00
2022-10-17T14:01:27.276Z,10.90
2022-10-17T14:04:07.639Z,10.90
2022-10-17T14:06:48.009Z,10.80
2022-10-17T14:09:26.837Z,10.80
2022-10-17T14:12:19.290Z,10.80
2022-10-17T14:15:09.778Z,10.70
2022-10-17T14:17:38.618Z,10.60
2022-10-17T14:20:47.849Z,10.60
2022-10-17T14:23:21.360Z,10.50
2022-10-17T14:25:43.882Z,10.50
2022-10-17T14:28:16.926Z,10.40
2022-10-17T14:30:56.154Z,10.40
2022-10-17T14:33:32.437Z,10.30
2022-10-17T14:36:02.380Z,10.40
2022-10-17T14:38:30.339Z,10.40
2022-10-17T14:41:40.972Z,10.30
2022-10-17T14:44:08.697Z,10.20
2022-10-17T14:46:36.698Z,10.10
2022-10-17T14:49:20.557Z,10.10
2022-10-17T14:52:18.203Z,10.10
2022-10-17T14:54:50.003Z,10.00
2022-10-17T14:57:25.123Z,10.00
2022-10-17T14:59:54.252Z,9.90
2022-10-17T15:02:26.472Z,9.90
2022-10-17T15:04:54.241Z,10.00
2022-10-17T15:07:22.325Z,9.90
2022-10-17T15:09:51.015Z,9.80
2022-10-17T15:12:21.140Z,9.70
2022-10-17T15:14:48.771Z,9.60
2022-10-17T15:17:20.809Z,9.50
2022-10-17T15:19:49.094Z,9.40
2022-10-17T15:22:16.270Z,9.30
2022-10-17T15:24:45.915Z,9.30
2022-10-17T15:27:21.508Z,9.30
2022-10-17T15:29:49.323Z,9.20
2022-10-17T15:32:16.734Z,9.30
2022-10-17T15:34:44.192Z,9.30
2022-10-17T15:37:22.099Z,9.30
2022-10-17T15:39:54.896Z,9.30
2022-10-17T15:42:26.422Z,9.20
2022-10-17T15:44:54.005Z,9.20
2022-10-17T15:47:25.481Z,9.20
2022-10-17T15:49:53.265Z,9.30
2022-10-17T15:52:20.236Z,9.20
2022-10-17T15:54:47.362Z,9.20
2022-10-17T15:57:26.148Z,9.20
2022-10-17T15:59:54.713Z,9.20
2022-10-17T16:02:23.744Z,9.20
2022-10-17T16:04:52.310Z,9.20
2022-10-17T16:07:20.612Z,9.20
2022-10-17T16:09:48.047Z,9.10
2022-10-17T16:14:55.602Z,9.00
2022-10-17T16:17:22.602Z,9.00
2022-10-17T16:19:50.045Z,9.00
2022-10-17T16:22:36.600Z,9.00
2022-10-17T16:25:10.156Z,9.00
2022-10-17T16:27:37.769Z,9.00
2022-10-17T16:30:06.632Z,8.90
2022-10-17T16:32:34.222Z,8.90
2022-10-17T16:35:01.628Z,8.90
2022-10-17T16:37:28.637Z,8.80
2022-10-17T16:39:55.615Z,8.90
2022-10-17T16:42:22.879Z,8.80
2022-10-17T16:44:51.480Z,8.80
2022-10-17T16:47:19.337Z,8.80
2022-10-17T16:49:46.422Z,8.80
2022-10-17T16:52:13.719Z,8.80
2022-10-17T16:54:40.754Z,8.80
2022-10-17T16:57:07.927Z,8.80
2022-10-17T16:59:34.974Z,8.80
2022-10-17T17:02:01.957Z,8.70
2022-10-17T17:04:28.978Z,8.70
2022-10-17T17:06:55.916Z,8.70
2022-10-17T17:09:22.962Z,8.70
2022-10-17T17:11:50.004Z,8.70
2022-10-17T17:14:16.944Z,8.70
2022-10-17T17:16:43.885Z,8.60
2022-10-17T17:19:14.146Z,8.60
2022-10-17T17:21:47.573Z,8.60
2022-10-17T17:24:15.091Z,8.50
2022-10-17T17:26:42.152Z,8.40
2022-10-17T17:29:09.823Z,8.30
2022-10-17T17:31:38.969Z,8.20
2022-10-17T17:34:06.343Z,8.20
2022-10-17T17:36:36.447Z,8.10
2022-10-17T17:39:11.093Z,8.00
2022-10-17T17:41:39.215Z,8.00
2022-10-17T17:44:06.700Z,8.00
2022-10-17T17:46:33.706Z,8.00
2022-10-17T17:49:01.090Z,8.00
2022-10-17T17:51:29.429Z,8.00
2022-10-17T17:53:56.936Z,7.90
2022-10-17T17:56:26.893Z,7.90
2022-10-17T17:58:56.513Z,7.90
2022-10-17T18:01:25.600Z,7.90
2022-10-17T18:03:54.011Z,7.90
2022-10-17T18:06:22.179Z,7.90
2022-10-17T18:08:52.236Z,7.90
2022-10-17T18:11:21.899Z,7.90
2022-10-17T18:13:57.587Z,7.90
2022-10-17T18:16:26.042Z,8.00
2022-10-17T18:18:53.151Z,8.00
2022-10-17T18:21:20.338Z,8.00
2022-10-17T18:23:48.883Z,8.00
2022-10-17T18:26:16.287Z,7.90
2022-10-17T18:28:44.296Z,7.80
2022-10-17T18:31:15.815Z,7.70
2022-10-17T18:33:44.679Z,7.70
2022-10-17T18:36:13.916Z,7.70
2022-10-17T18:38:41.404Z,7.60
2022-10-17T18:41:12.603Z,7.70
2022-10-17T18:43:41.598Z,7.70
2022-10-17T18:46:14.015Z,7.70
2022-10-17T18:48:44.606Z,7.70
2022-10-17T18:51:13.151Z,7.70
2022-10-17T18:53:41.756Z,7.60
2022-10-17T18:56:09.675Z,7.60
2022-10-17T18:58:40.712Z,7.50
2022-10-17T19:01:10.813Z,7.50
2022-10-17T19:03:38.331Z,7.40
2022-10-17T19:06:07.513Z,7.30
2022-10-17T19:08:35.732Z,7.30
2022-10-17T19:11:11.280Z,7.30
2022-10-17T19:13:38.652Z,7.30
2022-10-17T19:16:10.226Z,7.40
2022-10-17T19:18:37.315Z,7.40
2022-10-17T19:21:06.769Z,7.50
2022-10-17T19:23:35.969Z,7.50
2022-10-17T19:26:11.197Z,7.40
2022-10-17T19:28:42.113Z,7.30
2022-10-17T19:31:11.177Z,7.30
2022-10-17T19:33:40.009Z,7.30
2022-10-17T19:36:10.579Z,7.30
2022-10-17T19:38:37.767Z,7.20
2022-10-17T19:41:10.522Z,7.30
2022-10-17T19:43:38.983Z,7.20
2022-10-17T19:46:09.015Z,7.20
2022-10-17T19:48:37.467Z,7.20
2022-10-17T19:51:05.630Z,7.10
2022-10-17T19:53:32.881Z,7.20
2022-10-17T19:56:00.040Z,7.10
2022-10-17T19:58:27.627Z,7.10
2022-10-17T20:00:57.395Z,7.10
2022-10-17T20:03:27.868Z,7.00
2022-10-17T20:05:55.295Z,7.00
2022-10-17T20:08:22.546Z,6.90
2022-10-17T20:10:49.519Z,7.00
2022-10-17T20:13:16.490Z,7.00
2022-10-17T20:15:53.219Z,7.10
2022-10-17T20:18:20.191Z,7.00
2022-10-17T20:20:47.166Z,7.00
2022-10-17T20:23:14.547Z,7.00
2022-10-17T20:25:41.550Z,7.00
2022-10-17T20:28:08.656Z,6.90
2022-10-17T20:30:35.965Z,6.90
2022-10-17T20:33:02.898Z,6.90
2022-10-17T20:35:29.916Z,6.90
2022-10-17T20:37:57.207Z,6.80
2022-10-17T20:40:34.600Z,6.80
2022-10-17T20:43:04.256Z,6.80
2022-10-17T20:45:44.227Z,6.80
2022-10-17T20:48:18.289Z,6.80
2022-10-17T20:50:45.266Z,6.70
2022-10-17T20:56:18.588Z,6.60
2022-10-17T20:58:45.578Z,6.60
2022-10-17T21:01:12.595Z,6.60
2022-10-17T21:03:42.495Z,6.60
2022-10-17T21:06:12.961Z,6.60
2022-10-17T21:08:40.256Z,6.70
2022-10-17T21:11:12.409Z,6.60
2022-10-17T21:13:40.055Z,6.50
2022-10-17T21:16:15.465Z,6.40
2022-10-17T21:18:43.349Z,6.40
2022-10-17T21:21:12.585Z,6.30
2022-10-17T21:23:40.902Z,6.10
2022-10-17T21:26:09.453Z,6.00
2022-10-17T21:28:37.658Z,5.80
2022-10-17T21:31:13.615Z,5.80
2022-10-17T21:33:41.513Z,5.60
2022-10-17T21:36:09.074Z,5.50
2022-10-17T21:38:39.984Z,5.50
2022-10-17T21:41:08.448Z,5.40
2022-10-17T21:43:36.496Z,5.30
2022-10-17T21:46:05.387Z,5.20
2022-10-17T21:48:33.319Z,5.30
2022-10-17T21:51:06.652Z,5.40
2022-10-17T21:53:34.181Z,5.50
2022-10-17T21:56:14.910Z,5.60
2022-10-17T21:58:42.999Z,5.60
2022-10-17T22:01:40.564Z,5.60
2022-10-17T22:04:11.188Z,5.60
2022-10-17T22:06:41.064Z,5.40
2022-10-17T22:09:17.960Z,5.30
2022-10-17T22:11:47.833Z,5.10
2022-10-17T22:14:17.778Z,4.90
2022-10-17T22:16:46.474Z,4.80
2022-10-17T22:19:16.236Z,4.70
2022-10-17T22:21:43.213Z,4.70
2022-10-17T22:24:14.220Z,4.70
2022-10-17T22:26:42.523Z,4.80
2022-10-17T22:29:10.578Z,4.90
2022-10-17T22:31:38.576Z,5.00
2022-10-17T22:34:06.808Z,5.00
2022-10-17T22:36:34.615Z,5.10
2022-10-17T22:39:01.696Z,5.10
2022-10-17T22:41:28.892Z,5.10
2022-10-17T22:43:56.033Z,5.00
2022-10-17T22:46:23.142Z,5.00
2022-10-17T22:48:50.155Z,5.00
2022-10-17T22:51:17.694Z,4.90
2022-10-17T22:53:45.043Z,4.90
2022-10-17T22:56:14.936Z,4.90
2022-10-17T22:58:42.031Z,4.90
2022-10-17T23:01:13.638Z,5.00
2022-10-17T23:03:40.734Z,5.00
2022-10-17T23:06:07.987Z,5.20
2022-10-17T23:08:35.237Z,5.20
2022-10-17T23:11:02.255Z,5.20
2022-10-17T23:13:29.199Z,5.20
2022-10-17T23:15:57.484Z,5.30
2022-10-17T23:18:25.515Z,5.30
2022-10-17T23:20:52.914Z,5.30
2022-10-17T23:23:20.151Z,5.30
2022-10-17T23:25:47.456Z,5.20
2022-10-17T23:28:14.431Z,5.30
2022-10-17T23:30:41.436Z,5.30
2022-10-17T23:33:10.880Z,5.30
2022-10-17T23:35:37.836Z,5.30
2022-10-17T23:38:07.560Z,5.30
2022-10-17T23:40:35.441Z,5.30
2022-10-17T23:43:03.098Z,5.40
2022-10-17T23:45:33.509Z,5.40
2022-10-17T23:48:04.943Z,5.50
2022-10-17T23:50:31.870Z,5.50
2022-10-17T23:52:58.805Z,5.60
2022-10-17T23:55:25.934Z,5.70
2022-10-17T23:57:53.143Z,5.70
